sensor_id;sensor_type;location;lat;lon;timestamp;P1;durP1;ratioP1;P2;durP2;ratioP2
43449;SDS011;29041;42.266;23.110;2022-11-15T00:00:32;20.73;;;10.13;;
43449;SDS011;29041;42.266;23.110;2022-11-15T00:03:20;19.08;;;8.40;;
43449;SDS011;29041;42.266;23.110;2022-11-15T00:06:09;18.02;;;8.60;;
43449;SDS011;29041;42.266;23.110;2022-11-15T00:08:57;16.50;;;9.57;;
43449;SDS011;29041;42.266;23.110;2022-11-15T00:11:45;18.42;;;7.93;;
43449;SDS011;29041;42.266;23.110;2022-11-15T00:14:32;19.15;;;9.75;;
43449;SDS011;29041;42.266;23.110;2022-11-15T00:17:22;19.83;;;10.65;;
43449;SDS011;29041;42.266;23.110;2022-11-15T00:20:09;16.08;;;8.45;;
43449;SDS011;29041;42.266;23.110;2022-11-15T00:22:57;22.60;;;9.77;;
43449;SDS011;29041;42.266;23.110;2022-11-15T00:25:44;18.65;;;9.25;;
43449;SDS011;29041;42.266;23.110;2022-11-15T00:28:32;15.75;;;8.00;;
43449;SDS011;29041;42.266;23.110;2022-11-15T00:31:20;19.77;;;9.50;;
43449;SDS011;29041;42.266;23.110;2022-11-15T00:34:08;24.90;;;9.23;;
43449;SDS011;29041;42.266;23.110;2022-11-15T00:36:56;16.63;;;9.27;;
43449;SDS011;29041;42.266;23.110;2022-11-15T00:39:43;19.25;;;9.15;;
43449;SDS011;29041;42.266;23.110;2022-11-15T00:42:30;19.00;;;10.02;;
43449;SDS011;29041;42.266;23.110;2022-11-15T00:45:17;18.95;;;9.20;;
43449;SDS011;29041;42.266;23.110;2022-11-15T00:48:04;17.42;;;8.82;;
43449;SDS011;29041;42.266;23.110;2022-11-15T00:50:53;19.17;;;8.98;;
43449;SDS011;29041;42.266;23.110;2022-11-15T00:53:40;15.98;;;8.38;;
43449;SDS011;29041;42.266;23.110;2022-11-15T00:56:27;18.63;;;8.93;;
43449;SDS011;29041;42.266;23.110;2022-11-15T00:59:15;19.92;;;9.38;;
43449;SDS011;29041;42.266;23.110;2022-11-15T01:02:02;18.90;;;9.73;;
43449;SDS011;29041;42.266;23.110;2022-11-15T01:04:49;13.88;;;8.68;;
43449;SDS011;29041;42.266;23.110;2022-11-15T01:07:38;18.80;;;8.90;;
43449;SDS011;29041;42.266;23.110;2022-11-15T01:10:25;15.80;;;9.50;;
43449;SDS011;29041;42.266;23.110;2022-11-15T01:13:12;17.50;;;8.88;;
43449;SDS011;29041;42.266;23.110;2022-11-15T01:15:59;23.13;;;8.88;;
43449;SDS011;29041;42.266;23.110;2022-11-15T01:18:51;22.90;;;10.13;;
43449;SDS011;29041;42.266;23.110;2022-11-15T01:21:39;20.52;;;9.55;;
43449;SDS011;29041;42.266;23.110;2022-11-15T01:24:27;21.73;;;9.30;;
43449;SDS011;29041;42.266;23.110;2022-11-15T01:27:15;19.70;;;9.20;;
43449;SDS011;29041;42.266;23.110;2022-11-15T01:30:02;22.33;;;9.43;;
43449;SDS011;29041;42.266;23.110;2022-11-15T01:32:50;18.67;;;9.68;;
43449;SDS011;29041;42.266;23.110;2022-11-15T01:35:38;19.80;;;9.23;;
43449;SDS011;29041;42.266;23.110;2022-11-15T01:38:26;25.52;;;10.55;;
43449;SDS011;29041;42.266;23.110;2022-11-15T01:41:16;19.08;;;8.88;;
43449;SDS011;29041;42.266;23.110;2022-11-15T01:47:26;20.83;;;9.90;;
43449;SDS011;29041;42.266;23.110;2022-11-15T01:50:19;19.65;;;9.65;;
43449;SDS011;29041;42.266;23.110;2022-11-15T01:53:08;15.75;;;8.45;;
43449;SDS011;29041;42.266;23.110;2022-11-15T01:55:56;17.35;;;10.00;;
43449;SDS011;29041;42.266;23.110;2022-11-15T01:58:45;15.52;;;9.50;;
43449;SDS011;29041;42.266;23.110;2022-11-15T02:01:33;21.63;;;10.10;;
43449;SDS011;29041;42.266;23.110;2022-11-15T02:04:24;21.42;;;9.07;;
43449;SDS011;29041;42.266;23.110;2022-11-15T02:07:14;18.02;;;9.05;;
43449;SDS011;29041;42.266;23.110;2022-11-15T02:10:06;21.75;;;9.90;;
43449;SDS011;29041;42.266;23.110;2022-11-15T02:12:58;20.10;;;8.82;;
43449;SDS011;29041;42.266;23.110;2022-11-15T02:15:56;19.05;;;8.45;;
43449;SDS011;29041;42.266;23.110;2022-11-15T02:18:55;18.65;;;8.88;;
43449;SDS011;29041;42.266;23.110;2022-11-15T02:21:47;17.75;;;9.23;;
43449;SDS011;29041;42.266;23.110;2022-11-15T02:24:54;17.83;;;8.52;;
43449;SDS011;29041;42.266;23.110;2022-11-15T02:28:16;17.88;;;9.30;;
43449;SDS011;29041;42.266;23.110;2022-11-15T02:31:19;19.73;;;9.05;;
43449;SDS011;29041;42.266;23.110;2022-11-15T02:34:16;22.15;;;8.88;;
43449;SDS011;29041;42.266;23.110;2022-11-15T02:37:13;18.95;;;8.25;;
43449;SDS011;29041;42.266;23.110;2022-11-15T02:40:06;15.35;;;7.47;;
43449;SDS011;29041;42.266;23.110;2022-11-15T02:43:00;18.23;;;8.02;;
43449;SDS011;29041;42.266;23.110;2022-11-15T02:46:13;14.40;;;7.68;;
43449;SDS011;29041;42.266;23.110;2022-11-15T02:49:06;17.15;;;8.77;;
43449;SDS011;29041;42.266;23.110;2022-11-15T02:51:54;14.88;;;7.15;;
43449;SDS011;29041;42.266;23.110;2022-11-15T02:54:42;14.23;;;7.70;;
43449;SDS011;29041;42.266;23.110;2022-11-15T02:57:32;18.65;;;8.05;;
43449;SDS011;29041;42.266;23.110;2022-11-15T03:00:30;17.70;;;9.00;;
43449;SDS011;29041;42.266;23.110;2022-11-15T03:03:29;19.35;;;8.82;;
43449;SDS011;29041;42.266;23.110;2022-11-15T03:06:32;22.67;;;8.90;;
43449;SDS011;29041;42.266;23.110;2022-11-15T03:09:28;23.77;;;9.40;;
43449;SDS011;29041;42.266;23.110;2022-11-15T03:12:22;16.85;;;8.18;;
43449;SDS011;29041;42.266;23.110;2022-11-15T03:15:16;18.85;;;8.80;;
43449;SDS011;29041;42.266;23.110;2022-11-15T03:18:10;14.32;;;7.40;;
43449;SDS011;29041;42.266;23.110;2022-11-15T03:21:04;18.30;;;8.20;;
43449;SDS011;29041;42.266;23.110;2022-11-15T03:23:55;17.45;;;9.48;;
43449;SDS011;29041;42.266;23.110;2022-11-15T03:26:47;12.95;;;7.88;;
43449;SDS011;29041;42.266;23.110;2022-11-15T03:29:37;24.15;;;8.93;;
43449;SDS011;29041;42.266;23.110;2022-11-15T03:32:28;20.35;;;9.30;;
43449;SDS011;29041;42.266;23.110;2022-11-15T03:35:18;23.40;;;10.07;;
43449;SDS011;29041;42.266;23.110;2022-11-15T03:38:08;16.38;;;7.93;;
43449;SDS011;29041;42.266;23.110;2022-11-15T03:41:05;18.75;;;9.35;;
43449;SDS011;29041;42.266;23.110;2022-11-15T03:44:01;21.75;;;8.98;;
43449;SDS011;29041;42.266;23.110;2022-11-15T03:47:01;18.13;;;8.25;;
43449;SDS011;29041;42.266;23.110;2022-11-15T03:49:53;18.95;;;9.77;;
43449;SDS011;29041;42.266;23.110;2022-11-15T03:52:46;13.55;;;8.05;;
43449;SDS011;29041;42.266;23.110;2022-11-15T03:55:35;14.75;;;8.10;;
43449;SDS011;29041;42.266;23.110;2022-11-15T03:58:24;18.60;;;7.50;;
43449;SDS011;29041;42.266;23.110;2022-11-15T04:01:11;25.60;;;9.35;;
43449;SDS011;29041;42.266;23.110;2022-11-15T04:03:58;22.90;;;8.65;;
43449;SDS011;29041;42.266;23.110;2022-11-15T04:06:45;17.20;;;8.82;;
43449;SDS011;29041;42.266;23.110;2022-11-15T04:09:32;17.33;;;9.18;;
43449;SDS011;29041;42.266;23.110;2022-11-15T04:12:40;17.98;;;8.48;;
43449;SDS011;29041;42.266;23.110;2022-11-15T04:15:30;19.63;;;9.57;;
43449;SDS011;29041;42.266;23.110;2022-11-15T04:18:17;21.88;;;9.85;;
43449;SDS011;29041;42.266;23.110;2022-11-15T04:21:04;22.65;;;9.80;;
43449;SDS011;29041;42.266;23.110;2022-11-15T04:24:09;28.98;;;10.95;;
43449;SDS011;29041;42.266;23.110;2022-11-15T04:26:59;22.15;;;10.60;;
43449;SDS011;29041;42.266;23.110;2022-11-15T04:29:46;20.02;;;9.32;;
43449;SDS011;29041;42.266;23.110;2022-11-15T04:32:35;20.17;;;8.73;;
43449;SDS011;29041;42.266;23.110;2022-11-15T04:35:22;21.27;;;9.40;;
43449;SDS011;29041;42.266;23.110;2022-11-15T04:38:10;22.80;;;9.70;;
43449;SDS011;29041;42.266;23.110;2022-11-15T04:40:58;21.90;;;10.18;;
43449;SDS011;29041;42.266;23.110;2022-11-15T04:43:45;33.17;;;13.18;;
43449;SDS011;29041;42.266;23.110;2022-11-15T04:46:32;22.25;;;9.95;;
43449;SDS011;29041;42.266;23.110;2022-11-15T04:49:20;22.45;;;9.23;;
43449;SDS011;29041;42.266;23.110;2022-11-15T04:52:07;25.75;;;10.85;;
43449;SDS011;29041;42.266;23.110;2022-11-15T04:54:55;16.48;;;9.85;;
43449;SDS011;29041;42.266;23.110;2022-11-15T04:57:42;24.33;;;10.05;;
43449;SDS011;29041;42.266;23.110;2022-11-15T05:00:29;21.58;;;10.65;;
43449;SDS011;29041;42.266;23.110;2022-11-15T05:03:17;18.25;;;9.45;;
43449;SDS011;29041;42.266;23.110;2022-11-15T05:06:22;21.85;;;9.82;;
43449;SDS011;29041;42.266;23.110;2022-11-15T05:09:10;19.65;;;9.88;;
43449;SDS011;29041;42.266;23.110;2022-11-15T05:11:58;17.95;;;9.48;;
43449;SDS011;29041;42.266;23.110;2022-11-15T05:14:45;21.40;;;8.98;;
43449;SDS011;29041;42.266;23.110;2022-11-15T05:17:33;18.30;;;9.40;;
43449;SDS011;29041;42.266;23.110;2022-11-15T05:20:20;25.73;;;10.45;;
43449;SDS011;29041;42.266;23.110;2022-11-15T05:23:09;19.20;;;9.20;;
43449;SDS011;29041;42.266;23.110;2022-11-15T05:25:58;21.20;;;11.18;;
43449;SDS011;29041;42.266;23.110;2022-11-15T05:28:45;25.50;;;11.77;;
43449;SDS011;29041;42.266;23.110;2022-11-15T05:31:32;31.73;;;12.68;;
43449;SDS011;29041;42.266;23.110;2022-11-15T05:34:19;22.38;;;11.32;;
43449;SDS011;29041;42.266;23.110;2022-11-15T05:37:08;29.88;;;13.20;;
43449;SDS011;29041;42.266;23.110;2022-11-15T05:39:56;23.10;;;11.52;;
43449;SDS011;29041;42.266;23.110;2022-11-15T05:42:44;25.00;;;11.88;;
43449;SDS011;29041;42.266;23.110;2022-11-15T05:45:32;23.05;;;12.73;;
43449;SDS011;29041;42.266;23.110;2022-11-15T05:48:21;24.77;;;11.48;;
43449;SDS011;29041;42.266;23.110;2022-11-15T05:51:08;20.40;;;10.23;;
43449;SDS011;29041;42.266;23.110;2022-11-15T05:53:55;25.52;;;11.63;;
43449;SDS011;29041;42.266;23.110;2022-11-15T05:56:46;21.77;;;10.25;;
43449;SDS011;29041;42.266;23.110;2022-11-15T05:59:33;25.17;;;11.70;;
43449;SDS011;29041;42.266;23.110;2022-11-15T06:02:22;26.90;;;10.20;;
43449;SDS011;29041;42.266;23.110;2022-11-15T06:05:09;23.13;;;10.95;;
43449;SDS011;29041;42.266;23.110;2022-11-15T06:07:57;19.30;;;11.02;;
43449;SDS011;29041;42.266;23.110;2022-11-15T06:10:46;20.38;;;10.40;;
43449;SDS011;29041;42.266;23.110;2022-11-15T06:13:34;21.65;;;10.50;;
43449;SDS011;29041;42.266;23.110;2022-11-15T06:16:21;20.48;;;8.93;;
43449;SDS011;29041;42.266;23.110;2022-11-15T06:19:09;17.20;;;9.27;;
43449;SDS011;29041;42.266;23.110;2022-11-15T06:21:56;21.73;;;11.18;;
43449;SDS011;29041;42.266;23.110;2022-11-15T06:24:43;28.02;;;12.15;;
43449;SDS011;29041;42.266;23.110;2022-11-15T06:27:30;23.13;;;11.77;;
43449;SDS011;29041;42.266;23.110;2022-11-15T06:30:19;24.63;;;12.10;;
43449;SDS011;29041;42.266;23.110;2022-11-15T06:33:06;26.00;;;12.25;;
43449;SDS011;29041;42.266;23.110;2022-11-15T06:35:55;22.50;;;12.43;;
43449;SDS011;29041;42.266;23.110;2022-11-15T06:38:42;25.58;;;12.57;;
43449;SDS011;29041;42.266;23.110;2022-11-15T06:41:29;24.40;;;11.73;;
43449;SDS011;29041;42.266;23.110;2022-11-15T06:44:16;25.58;;;12.52;;
43449;SDS011;29041;42.266;23.110;2022-11-15T06:47:05;33.45;;;12.65;;
43449;SDS011;29041;42.266;23.110;2022-11-15T06:49:52;27.17;;;13.90;;
43449;SDS011;29041;42.266;23.110;2022-11-15T06:52:39;29.60;;;12.77;;
43449;SDS011;29041;42.266;23.110;2022-11-15T06:55:26;31.23;;;16.42;;
43449;SDS011;29041;42.266;23.110;2022-11-15T06:58:13;29.73;;;13.68;;
43449;SDS011;29041;42.266;23.110;2022-11-15T07:01:00;30.63;;;15.18;;
43449;SDS011;29041;42.266;23.110;2022-11-15T07:03:51;35.53;;;15.30;;
43449;SDS011;29041;42.266;23.110;2022-11-15T07:06:38;30.95;;;14.50;;
43449;SDS011;29041;42.266;23.110;2022-11-15T07:09:25;23.63;;;13.80;;
43449;SDS011;29041;42.266;23.110;2022-11-15T07:12:12;32.45;;;14.05;;
43449;SDS011;29041;42.266;23.110;2022-11-15T07:14:59;32.67;;;15.15;;
43449;SDS011;29041;42.266;23.110;2022-11-15T07:17:46;30.90;;;14.95;;
43449;SDS011;29041;42.266;23.110;2022-11-15T07:20:35;26.83;;;15.07;;
43449;SDS011;29041;42.266;23.110;2022-11-15T07:23:22;28.23;;;14.50;;
43449;SDS011;29041;42.266;23.110;2022-11-15T07:26:09;28.48;;;13.65;;
43449;SDS011;29041;42.266;23.110;2022-11-15T07:28:57;23.15;;;12.82;;
43449;SDS011;29041;42.266;23.110;2022-11-15T07:31:44;26.70;;;13.27;;
43449;SDS011;29041;42.266;23.110;2022-11-15T07:34:31;28.05;;;13.68;;
43449;SDS011;29041;42.266;23.110;2022-11-15T07:37:19;26.98;;;14.85;;
43449;SDS011;29041;42.266;23.110;2022-11-15T07:40:07;33.33;;;16.40;;
43449;SDS011;29041;42.266;23.110;2022-11-15T07:42:58;32.80;;;14.07;;
43449;SDS011;29041;42.266;23.110;2022-11-15T07:45:46;25.88;;;14.38;;
43449;SDS011;29041;42.266;23.110;2022-11-15T07:48:33;28.20;;;14.88;;
43449;SDS011;29041;42.266;23.110;2022-11-15T07:51:20;33.40;;;14.80;;
43449;SDS011;29041;42.266;23.110;2022-11-15T07:54:09;34.35;;;16.02;;
43449;SDS011;29041;42.266;23.110;2022-11-15T07:56:56;35.50;;;18.17;;
43449;SDS011;29041;42.266;23.110;2022-11-15T07:59:43;29.20;;;14.50;;
43449;SDS011;29041;42.266;23.110;2022-11-15T08:02:30;30.23;;;13.43;;
43449;SDS011;29041;42.266;23.110;2022-11-15T08:05:18;23.50;;;13.38;;
43449;SDS011;29041;42.266;23.110;2022-11-15T08:08:06;31.42;;;14.95;;
43449;SDS011;29041;42.266;23.110;2022-11-15T08:10:56;28.50;;;13.38;;
43449;SDS011;29041;42.266;23.110;2022-11-15T08:13:44;21.77;;;11.25;;
43449;SDS011;29041;42.266;23.110;2022-11-15T08:16:31;20.77;;;10.80;;
43449;SDS011;29041;42.266;23.110;2022-11-15T08:19:18;20.23;;;11.20;;
43449;SDS011;29041;42.266;23.110;2022-11-15T08:22:05;19.42;;;7.97;;
43449;SDS011;29041;42.266;23.110;2022-11-15T08:24:53;17.40;;;7.70;;
43449;SDS011;29041;42.266;23.110;2022-11-15T08:27:42;20.90;;;7.70;;
43449;SDS011;29041;42.266;23.110;2022-11-15T08:30:29;14.20;;;6.88;;
43449;SDS011;29041;42.266;23.110;2022-11-15T08:33:17;18.60;;;8.30;;
43449;SDS011;29041;42.266;23.110;2022-11-15T08:36:05;15.05;;;7.75;;
43449;SDS011;29041;42.266;23.110;2022-11-15T08:38:52;13.90;;;6.65;;
43449;SDS011;29041;42.266;23.110;2022-11-15T08:41:39;15.60;;;7.13;;
43449;SDS011;29041;42.266;23.110;2022-11-15T08:44:28;21.23;;;8.32;;
43449;SDS011;29041;42.266;23.110;2022-11-15T08:47:15;13.25;;;7.53;;
43449;SDS011;29041;42.266;23.110;2022-11-15T08:50:02;16.42;;;7.38;;
43449;SDS011;29041;42.266;23.110;2022-11-15T08:52:49;17.27;;;9.25;;
43449;SDS011;29041;42.266;23.110;2022-11-15T08:55:37;22.88;;;8.73;;
43449;SDS011;29041;42.266;23.110;2022-11-15T08:58:25;13.25;;;7.93;;
43449;SDS011;29041;42.266;23.110;2022-11-15T09:01:18;19.00;;;8.45;;
43449;SDS011;29041;42.266;23.110;2022-11-15T09:04:06;19.88;;;9.63;;
43449;SDS011;29041;42.266;23.110;2022-11-15T09:06:53;16.80;;;9.50;;
43449;SDS011;29041;42.266;23.110;2022-11-15T09:09:40;16.98;;;9.02;;
43449;SDS011;29041;42.266;23.110;2022-11-15T09:12:28;16.75;;;9.15;;
43449;SDS011;29041;42.266;23.110;2022-11-15T09:15:15;15.23;;;8.05;;
43449;SDS011;29041;42.266;23.110;2022-11-15T09:18:04;13.70;;;7.63;;
43449;SDS011;29041;42.266;23.110;2022-11-15T09:20:54;12.45;;;7.53;;
43449;SDS011;29041;42.266;23.110;2022-11-15T09:23:42;15.57;;;7.53;;
43449;SDS011;29041;42.266;23.110;2022-11-15T09:26:29;18.25;;;7.28;;
43449;SDS011;29041;42.266;23.110;2022-11-15T09:29:17;16.92;;;8.35;;
43449;SDS011;29041;42.266;23.110;2022-11-15T09:32:04;17.42;;;9.07;;
43449;SDS011;29041;42.266;23.110;2022-11-15T09:34:53;16.35;;;9.63;;
43449;SDS011;29041;42.266;23.110;2022-11-15T09:37:40;18.17;;;8.77;;
43449;SDS011;29041;42.266;23.110;2022-11-15T09:40:29;17.20;;;9.10;;
43449;SDS011;29041;42.266;23.110;2022-11-15T09:43:25;16.33;;;8.20;;
43449;SDS011;29041;42.266;23.110;2022-11-15T09:46:20;20.88;;;10.23;;
43449;SDS011;29041;42.266;23.110;2022-11-15T09:49:15;16.70;;;9.20;;
43449;SDS011;29041;42.266;23.110;2022-11-15T09:52:06;14.85;;;7.55;;
43449;SDS011;29041;42.266;23.110;2022-11-15T09:54:55;16.52;;;8.32;;
43449;SDS011;29041;42.266;23.110;2022-11-15T09:57:44;30.65;;;19.10;;
43449;SDS011;29041;42.266;23.110;2022-11-15T10:00:38;16.95;;;8.85;;
43449;SDS011;29041;42.266;23.110;2022-11-15T10:03:28;13.85;;;8.25;;
43449;SDS011;29041;42.266;23.110;2022-11-15T10:06:21;20.20;;;9.68;;
43449;SDS011;29041;42.266;23.110;2022-11-15T10:09:14;21.77;;;8.90;;
43449;SDS011;29041;42.266;23.110;2022-11-15T10:12:03;22.20;;;12.55;;
43449;SDS011;29041;42.266;23.110;2022-11-15T10:14:59;22.75;;;9.85;;
43449;SDS011;29041;42.266;23.110;2022-11-15T10:21:02;12.82;;;7.78;;
43449;SDS011;29041;42.266;23.110;2022-11-15T10:24:03;17.42;;;9.65;;
43449;SDS011;29041;42.266;23.110;2022-11-15T10:26:59;16.90;;;8.52;;
43449;SDS011;29041;42.266;23.110;2022-11-15T10:29:48;18.95;;;10.60;;
43449;SDS011;29041;42.266;23.110;2022-11-15T10:32:36;21.20;;;9.13;;
43449;SDS011;29041;42.266;23.110;2022-11-15T10:35:25;15.52;;;9.02;;
43449;SDS011;29041;42.266;23.110;2022-11-15T10:38:15;16.52;;;7.25;;
43449;SDS011;29041;42.266;23.110;2022-11-15T10:41:06;15.30;;;8.18;;
43449;SDS011;29041;42.266;23.110;2022-11-15T10:44:07;20.67;;;8.98;;
43449;SDS011;29041;42.266;23.110;2022-11-15T10:49:53;17.35;;;7.78;;
43449;SDS011;29041;42.266;23.110;2022-11-15T10:52:45;16.58;;;8.65;;
43449;SDS011;29041;42.266;23.110;2022-11-15T10:55:33;14.95;;;8.82;;
43449;SDS011;29041;42.266;23.110;2022-11-15T10:58:22;17.48;;;9.68;;
43449;SDS011;29041;42.266;23.110;2022-11-15T11:01:21;15.55;;;8.00;;
43449;SDS011;29041;42.266;23.110;2022-11-15T11:04:10;17.15;;;7.93;;
43449;SDS011;29041;42.266;23.110;2022-11-15T11:06:57;17.20;;;7.60;;
43449;SDS011;29041;42.266;23.110;2022-11-15T11:09:47;14.18;;;8.18;;
43449;SDS011;29041;42.266;23.110;2022-11-15T11:12:44;20.23;;;9.25;;
43449;SDS011;29041;42.266;23.110;2022-11-15T11:15:32;28.52;;;9.60;;
43449;SDS011;29041;42.266;23.110;2022-11-15T11:18:22;19.50;;;7.65;;
43449;SDS011;29041;42.266;23.110;2022-11-15T11:21:14;14.90;;;7.95;;
43449;SDS011;29041;42.266;23.110;2022-11-15T11:24:07;17.47;;;9.33;;
43449;SDS011;29041;42.266;23.110;2022-11-15T11:27:01;21.10;;;9.13;;
43449;SDS011;29041;42.266;23.110;2022-11-15T11:30:09;17.33;;;8.23;;
43449;SDS011;29041;42.266;23.110;2022-11-15T11:33:04;15.60;;;9.02;;
43449;SDS011;29041;42.266;23.110;2022-11-15T11:36:03;21.88;;;8.55;;
43449;SDS011;29041;42.266;23.110;2022-11-15T11:39:09;22.70;;;10.35;;
43449;SDS011;29041;42.266;23.110;2022-11-15T11:42:08;23.42;;;9.93;;
43449;SDS011;29041;42.266;23.110;2022-11-15T11:45:05;18.77;;;9.55;;
43449;SDS011;29041;42.266;23.110;2022-11-15T11:48:03;18.52;;;9.10;;
43449;SDS011;29041;42.266;23.110;2022-11-15T11:51:00;29.25;;;9.50;;
43449;SDS011;29041;42.266;23.110;2022-11-15T11:53:52;19.95;;;8.80;;
43449;SDS011;29041;42.266;23.110;2022-11-15T11:56:44;15.77;;;8.60;;
43449;SDS011;29041;42.266;23.110;2022-11-15T11:59:33;16.75;;;9.23;;
43449;SDS011;29041;42.266;23.110;2022-11-15T12:02:28;17.67;;;9.23;;
43449;SDS011;29041;42.266;23.110;2022-11-15T12:05:22;15.65;;;9.43;;
43449;SDS011;29041;42.266;23.110;2022-11-15T12:08:22;20.80;;;8.07;;
43449;SDS011;29041;42.266;23.110;2022-11-15T12:11:16;16.92;;;8.10;;
43449;SDS011;29041;42.266;23.110;2022-11-15T12:14:11;13.68;;;7.97;;
43449;SDS011;29041;42.266;23.110;2022-11-15T12:17:07;16.33;;;7.68;;
43449;SDS011;29041;42.266;23.110;2022-11-15T12:19:56;14.60;;;8.18;;
43449;SDS011;29041;42.266;23.110;2022-11-15T12:22:47;18.73;;;7.53;;
43449;SDS011;29041;42.266;23.110;2022-11-15T12:25:43;29.02;;;9.23;;
43449;SDS011;29041;42.266;23.110;2022-11-15T12:28:36;12.88;;;7.07;;
43449;SDS011;29041;42.266;23.110;2022-11-15T12:31:30;15.27;;;7.88;;
43449;SDS011;29041;42.266;23.110;2022-11-15T12:34:38;12.60;;;8.00;;
43449;SDS011;29041;42.266;23.110;2022-11-15T12:44:03;15.65;;;6.85;;
43449;SDS011;29041;42.266;23.110;2022-11-15T12:47:02;16.50;;;7.28;;
43449;SDS011;29041;42.266;23.110;2022-11-15T12:49:51;13.85;;;8.45;;
43449;SDS011;29041;42.266;23.110;2022-11-15T12:52:54;17.38;;;8.80;;
43449;SDS011;29041;42.266;23.110;2022-11-15T12:56:23;13.18;;;7.93;;
43449;SDS011;29041;42.266;23.110;2022-11-15T12:59:10;14.20;;;7.20;;
43449;SDS011;29041;42.266;23.110;2022-11-15T13:02:33;13.38;;;8.00;;
43449;SDS011;29041;42.266;23.110;2022-11-15T13:08:46;14.75;;;8.48;;
43449;SDS011;29041;42.266;23.110;2022-11-15T13:11:47;15.88;;;8.35;;
43449;SDS011;29041;42.266;23.110;2022-11-15T13:14:40;22.88;;;8.27;;
43449;SDS011;29041;42.266;23.110;2022-11-15T13:17:33;21.48;;;8.15;;
43449;SDS011;29041;42.266;23.110;2022-11-15T13:20:23;17.77;;;8.95;;
43449;SDS011;29041;42.266;23.110;2022-11-15T13:23:14;15.98;;;8.05;;
43449;SDS011;29041;42.266;23.110;2022-11-15T13:26:10;17.38;;;8.35;;
43449;SDS011;29041;42.266;23.110;2022-11-15T13:29:03;13.23;;;7.60;;
43449;SDS011;29041;42.266;23.110;2022-11-15T13:31:50;14.93;;;8.30;;
43449;SDS011;29041;42.266;23.110;2022-11-15T13:34:37;15.40;;;7.40;;
43449;SDS011;29041;42.266;23.110;2022-11-15T13:37:28;12.52;;;7.47;;
43449;SDS011;29041;42.266;23.110;2022-11-15T13:40:22;14.73;;;8.10;;
43449;SDS011;29041;42.266;23.110;2022-11-15T13:43:19;18.92;;;9.52;;
43449;SDS011;29041;42.266;23.110;2022-11-15T13:46:17;12.82;;;7.53;;
43449;SDS011;29041;42.266;23.110;2022-11-15T13:49:07;16.13;;;8.48;;
43449;SDS011;29041;42.266;23.110;2022-11-15T13:51:56;16.48;;;8.00;;
43449;SDS011;29041;42.266;23.110;2022-11-15T13:54:45;16.65;;;7.80;;
43449;SDS011;29041;42.266;23.110;2022-11-15T13:57:37;17.85;;;8.65;;
43449;SDS011;29041;42.266;23.110;2022-11-15T14:00:38;18.57;;;8.57;;
43449;SDS011;29041;42.266;23.110;2022-11-15T14:03:30;18.33;;;8.43;;
43449;SDS011;29041;42.266;23.110;2022-11-15T14:06:19;16.33;;;8.65;;
43449;SDS011;29041;42.266;23.110;2022-11-15T14:12:22;23.30;;;11.93;;
43449;SDS011;29041;42.266;23.110;2022-11-15T14:15:18;16.42;;;7.95;;
43449;SDS011;29041;42.266;23.110;2022-11-15T14:18:37;17.83;;;8.57;;
43449;SDS011;29041;42.266;23.110;2022-11-15T14:21:33;18.98;;;9.63;;
43449;SDS011;29041;42.266;23.110;2022-11-15T14:24:21;14.05;;;7.75;;
43449;SDS011;29041;42.266;23.110;2022-11-15T14:27:18;17.60;;;8.82;;
43449;SDS011;29041;42.266;23.110;2022-11-15T14:30:12;15.02;;;8.68;;
43449;SDS011;29041;42.266;23.110;2022-11-15T14:33:00;17.63;;;8.80;;
43449;SDS011;29041;42.266;23.110;2022-11-15T14:35:49;15.20;;;8.02;;
43449;SDS011;29041;42.266;23.110;2022-11-15T14:38:37;15.23;;;8.27;;
43449;SDS011;29041;42.266;23.110;2022-11-15T14:41:24;17.63;;;9.70;;
43449;SDS011;29041;42.266;23.110;2022-11-15T14:44:12;22.27;;;10.30;;
43449;SDS011;29041;42.266;23.110;2022-11-15T14:47:03;16.38;;;8.93;;
43449;SDS011;29041;42.266;23.110;2022-11-15T14:49:50;19.20;;;9.30;;
43449;SDS011;29041;42.266;23.110;2022-11-15T14:52:39;57.28;;;27.85;;
43449;SDS011;29041;42.266;23.110;2022-11-15T14:55:27;22.77;;;11.82;;
43449;SDS011;29041;42.266;23.110;2022-11-15T14:58:17;23.25;;;10.68;;
43449;SDS011;29041;42.266;23.110;2022-11-15T15:01:09;32.55;;;12.40;;
43449;SDS011;29041;42.266;23.110;2022-11-15T15:03:59;24.52;;;9.82;;
43449;SDS011;29041;42.266;23.110;2022-11-15T15:06:46;25.35;;;15.15;;
43449;SDS011;29041;42.266;23.110;2022-11-15T15:09:35;57.28;;;27.02;;
43449;SDS011;29041;42.266;23.110;2022-11-15T15:12:23;35.42;;;16.13;;
43449;SDS011;29041;42.266;23.110;2022-11-15T15:15:16;41.03;;;19.45;;
43449;SDS011;29041;42.266;23.110;2022-11-15T15:18:05;37.47;;;16.60;;
43449;SDS011;29041;42.266;23.110;2022-11-15T15:20:54;41.08;;;20.52;;
43449;SDS011;29041;42.266;23.110;2022-11-15T15:23:45;30.73;;;17.15;;
43449;SDS011;29041;42.266;23.110;2022-11-15T15:26:33;41.28;;;20.67;;
43449;SDS011;29041;42.266;23.110;2022-11-15T15:29:21;71.10;;;34.03;;
43449;SDS011;29041;42.266;23.110;2022-11-15T15:32:10;47.88;;;23.75;;
43449;SDS011;29041;42.266;23.110;2022-11-15T15:34:58;45.15;;;23.35;;
43449;SDS011;29041;42.266;23.110;2022-11-15T15:37:46;52.92;;;25.45;;
43449;SDS011;29041;42.266;23.110;2022-11-15T15:40:35;63.58;;;29.52;;
43449;SDS011;29041;42.266;23.110;2022-11-15T15:43:23;62.17;;;31.30;;
43449;SDS011;29041;42.266;23.110;2022-11-15T15:46:11;60.80;;;29.20;;
43449;SDS011;29041;42.266;23.110;2022-11-15T15:49:00;86.47;;;37.08;;
43449;SDS011;29041;42.266;23.110;2022-11-15T15:51:47;56.22;;;30.08;;
43449;SDS011;29041;42.266;23.110;2022-11-15T15:54:34;50.97;;;25.25;;
43449;SDS011;29041;42.266;23.110;2022-11-15T15:57:21;63.45;;;33.72;;
43449;SDS011;29041;42.266;23.110;2022-11-15T16:00:11;59.30;;;30.85;;
43449;SDS011;29041;42.266;23.110;2022-11-15T16:02:58;46.03;;;25.50;;
43449;SDS011;29041;42.266;23.110;2022-11-15T16:05:46;50.58;;;24.60;;
43449;SDS011;29041;42.266;23.110;2022-11-15T16:08:33;66.63;;;36.60;;
43449;SDS011;29041;42.266;23.110;2022-11-15T16:11:20;54.78;;;28.98;;
43449;SDS011;29041;42.266;23.110;2022-11-15T16:14:07;60.80;;;39.90;;
43449;SDS011;29041;42.266;23.110;2022-11-15T16:16:56;53.25;;;27.30;;
43449;SDS011;29041;42.266;23.110;2022-11-15T16:19:43;47.53;;;25.58;;
43449;SDS011;29041;42.266;23.110;2022-11-15T16:22:30;50.33;;;26.88;;
43449;SDS011;29041;42.266;23.110;2022-11-15T16:25:17;52.80;;;27.70;;
43449;SDS011;29041;42.266;23.110;2022-11-15T16:28:05;45.67;;;25.38;;
43449;SDS011;29041;42.266;23.110;2022-11-15T16:31:01;48.33;;;25.58;;
43449;SDS011;29041;42.266;23.110;2022-11-15T16:33:51;53.15;;;25.45;;
43449;SDS011;29041;42.266;23.110;2022-11-15T16:36:40;48.25;;;23.80;;
43449;SDS011;29041;42.266;23.110;2022-11-15T16:39:27;43.92;;;22.30;;
43449;SDS011;29041;42.266;23.110;2022-11-15T16:42:15;60.65;;;33.33;;
43449;SDS011;29041;42.266;23.110;2022-11-15T16:45:03;60.80;;;31.02;;
43449;SDS011;29041;42.266;23.110;2022-11-15T16:47:51;52.80;;;30.08;;
43449;SDS011;29041;42.266;23.110;2022-11-15T16:50:40;51.60;;;27.52;;
43449;SDS011;29041;42.266;23.110;2022-11-15T16:53:27;62.17;;;32.80;;